Time;durP1;ratioP1;P1;durP2;ratioP2;P2;SDS_P1;SDS_P2;PMS_P1;PMS_P2;Temp;Humidity;BMP_temperature;BMP_pressure;BME280_temperature;BME280_humidity;BME280_pressure;Samples;Min_cycle;Max_cycle;Signal;HPM_P1;HPM_P2
2021/03/23 00:01:28;;;;;;;10.03;7.90;;;4.40;99.90;;;5.47;76.22;98674.97;5149554;28;20703;-59
2021/03/23 00:04:01;;;;;;;10.00;7.97;;;4.50;99.90;;;5.46;76.82;98670.63;5157987;28;20260;-59
2021/03/23 00:06:33;;;;;;;9.20;8.20;;;4.50;99.90;;;5.44;76.37;98673.06;5149547;28;20192;-58
2021/03/23 00:09:07;;;;;;;10.23;9.23;;;4.40;99.90;;;5.45;76.42;98671.41;5144303;28;20203;-59
2021/03/23 00:11:42;;;;;;;9.70;8.70;;;4.40;99.90;;;5.44;76.56;98670.53;5161017;28;20215;-59
2021/03/23 00:14:14;;;;;;;10.97;9.10;;;4.40;99.90;;;5.43;76.95;98677.19;5164222;28;20209;-59
2021/03/23 00:16:47;;;;;;;10.23;9.00;;;4.40;99.90;;;5.42;76.62;98674.56;5147215;28;20226;-59
2021/03/23 00:19:19;;;;;;;8.97;8.07;;;4.40;99.90;;;5.40;76.73;98676.94;5144325;28;20221;-58
2021/03/23 00:21:51;;;;;;;9.20;8.30;;;4.40;99.90;;;5.43;76.81;98673.78;5156600;28;20307;-59
2021/03/23 00:24:23;;;;;;;8.23;7.37;;;4.40;99.90;;;5.41;76.82;98676.19;5160526;28;20288;-58
2021/03/23 00:26:56;;;;;;;9.63;7.73;;;4.40;99.90;;;5.36;76.99;98672.34;5163597;28;20536;-59
2021/03/23 00:29:28;;;;;;;11.27;9.20;;;4.40;99.90;;;5.31;76.68;98673.56;5163841;28;20202;-59
2021/03/23 00:32:00;;;;;;;9.60;8.30;;;4.30;99.90;;;5.27;76.91;98678.25;5146354;28;20730;-59
2021/03/23 00:34:32;;;;;;;9.27;8.33;;;4.30;99.90;;;5.24;76.65;98676.31;5144108;28;20619;-59
2021/03/23 00:37:06;;;;;;;9.27;8.40;;;4.30;99.90;;;5.17;76.73;98676.50;5146246;28;20307;-58
2021/03/23 00:39:39;;;;;;;8.90;8.03;;;4.30;99.90;;;5.22;76.78;98682.88;5161036;28;20293;-59
2021/03/23 00:42:12;;;;;;;10.47;9.40;;;4.30;99.90;;;5.25;77.02;98675.56;5164314;28;20603;-59
2021/03/23 00:44:45;;;;;;;10.27;9.17;;;4.30;99.90;;;5.27;76.71;98680.78;5150230;28;20644;-58
2021/03/23 00:47:17;;;;;;;13.50;10.00;;;4.40;99.90;;;5.31;76.67;98671.03;5164058;28;20217;-60
2021/03/23 00:49:49;;;;;;;12.53;10.30;;;4.40;99.90;;;5.33;76.81;98677.16;5163695;28;20241;-59
2021/03/23 00:52:21;;;;;;;12.87;10.00;;;4.40;99.90;;;5.37;76.73;98674.13;5163818;28;20628;-58
2021/03/23 00:54:53;;;;;;;12.83;9.80;;;4.40;99.90;;;5.40;76.64;98671.88;5162024;28;20230;-59
2021/03/23 00:57:26;;;;;;;12.17;9.60;;;4.50;99.90;;;5.36;76.55;98674.88;5163814;28;20223;-58
2021/03/23 00:59:58;;;;;;;11.07;9.87;;;4.40;99.90;;;5.39;76.67;98667.56;5163766;28;20201;-59
2021/03/23 01:02:30;;;;;;;13.37;10.00;;;4.50;99.90;;;5.44;76.49;98675.59;5163585;28;20735;-59
2021/03/23 01:05:06;;;;;;;12.80;10.03;;;4.50;99.90;;;5.45;75.87;98673.94;5167840;28;20273;-59
2021/03/23 01:07:38;;;;;;;12.10;9.13;;;4.40;99.90;;;5.47;76.46;98677.50;5165941;28;20713;-59
2021/03/23 01:10:13;;;;;;;9.77;8.87;;;4.40;99.90;;;5.41;76.52;98671.13;5167201;28;20208;-59
2021/03/23 01:12:46;;;;;;;9.77;8.87;;;4.40;99.90;;;5.40;76.70;98664.25;5167649;28;20261;-58
2021/03/23 01:15:24;;;;;;;9.50;8.60;;;4.30;99.90;;;5.32;77.00;98670.31;5167504;28;20221;-59
2021/03/23 01:17:56;;;;;;;13.63;9.40;;;4.30;99.90;;;5.23;77.50;98672.00;5167555;28;20227;-58
2021/03/23 01:20:31;;;;;;;9.17;8.27;;;4.20;99.90;;;5.20;77.10;98666.63;5167241;28;20294;-59
2021/03/23 01:23:03;;;;;;;10.60;8.40;;;4.30;99.90;;;5.13;77.18;98667.75;5165838;28;20236;-59
2021/03/23 01:25:36;;;;;;;14.20;9.30;;;4.20;99.90;;;5.09;77.65;98673.25;5158774;28;20286;-59
2021/03/23 01:28:08;;;;;;;12.00;9.67;;;4.20;99.90;;;5.13;77.21;98664.31;5147239;28;20215;-59
2021/03/23 01:30:41;;;;;;;9.80;8.80;;;4.30;99.90;;;5.16;77.24;98672.19;5158449;28;20301;-59
2021/03/23 01:33:13;;;;;;;10.40;9.17;;;4.20;99.90;;;5.17;77.49;98661.31;5167609;28;20316;-59
2021/03/23 01:35:45;;;;;;;9.80;8.90;;;4.20;99.90;;;5.18;77.29;98674.13;5167216;28;20214;-59
2021/03/23 01:38:17;;;;;;;10.10;8.90;;;4.20;99.90;;;5.19;77.81;98670.81;5167194;28;20231;-58
2021/03/23 01:40:50;;;;;;;11.53;8.50;;;4.20;99.90;;;5.22;77.39;98677.81;5167218;28;20199;-59
2021/03/23 01:43:28;;;;;;;10.00;8.13;;;4.20;99.90;;;5.22;77.73;98661.72;5166675;28;20229;-59
2021/03/23 01:46:02;;;;;;;11.63;9.07;;;4.20;99.90;;;5.22;77.78;98670.22;5160351;28;20209;-59
2021/03/23 01:48:34;;;;;;;9.10;8.20;;;4.30;99.90;;;5.23;77.61;98661.84;5166954;28;20202;-59
2021/03/23 01:51:08;;;;;;;10.03;8.67;;;4.20;99.90;;;5.31;77.76;98660.91;5166876;28;20293;-59
2021/03/23 01:53:48;;;;;;;11.73;8.97;;;4.20;99.90;;;5.32;77.81;98662.72;5166870;28;20207;-58
2021/03/23 01:56:20;;;;;;;9.83;8.83;;;4.20;99.90;;;5.28;77.79;98660.63;5166884;28;20297;-58
2021/03/23 01:58:55;;;;;;;9.60;8.27;;;4.20;99.90;;;5.24;77.60;98660.22;5166516;28;20291;-57
2021/03/23 02:01:27;;;;;;;11.17;9.13;;;4.20;99.90;;;5.24;77.85;98658.59;5164706;28;20222;-59
2021/03/23 02:04:01;;;;;;;8.63;7.67;;;4.20;99.90;;;5.21;78.04;98655.78;5166675;28;20210;-57
2021/03/23 02:06:42;;;;;;;9.87;8.87;;;4.20;99.90;;;5.23;78.25;98651.72;5166623;28;20207;-58
2021/03/23 02:09:18;;;;;;;10.23;8.87;;;4.20;99.90;;;5.22;78.24;98655.00;5166914;28;20399;-59
2021/03/23 02:11:53;;;;;;;10.87;9.30;;;4.20;99.90;;;5.26;77.96;98654.53;5166730;28;20316;-59
2021/03/23 02:14:29;;;;;;;10.23;8.67;;;4.20;99.90;;;5.26;78.08;98648.56;5165275;28;20199;-59
2021/03/23 02:17:22;;;;;;;12.63;8.67;;;4.20;99.90;;;5.24;77.86;98653.50;5166422;28;20230;-59
2021/03/23 02:19:59;;;;;;;9.87;8.73;;;4.20;99.90;;;5.24;78.07;98655.16;5166747;28;20294;-59
2021/03/23 02:22:36;;;;;;;13.73;9.20;;;4.20;99.90;;;5.21;78.44;98655.78;5166416;28;20313;-58
2021/03/23 02:25:18;;;;;;;10.90;9.03;;;4.20;99.90;;;5.24;78.03;98650.97;5166194;28;20256;-59
2021/03/23 02:27:51;;;;;;;10.27;9.17;;;4.20;99.90;;;5.24;78.29;98648.44;5166019;28;20281;-59
2021/03/23 02:30:31;;;;;;;11.00;9.13;;;4.20;99.90;;;5.23;78.24;98646.66;5165958;28;20297;-59
2021/03/23 02:33:04;;;;;;;10.43;8.80;;;4.20;99.90;;;5.23;78.07;98651.72;5166002;28;20219;-59
2021/03/23 02:35:36;;;;;;;10.93;9.13;;;4.10;99.90;;;5.20;78.44;98648.91;5165765;28;20639;-57
2021/03/23 02:38:10;;;;;;;9.53;8.37;;;4.20;99.90;;;5.21;78.14;98653.25;5165827;28;20695;-59
2021/03/23 02:40:44;;;;;;;10.33;9.03;;;4.10;99.90;;;5.20;78.39;98651.44;5165896;28;21026;-58
2021/03/23 02:43:16;;;;;;;11.17;8.93;;;4.10;99.90;;;5.19;78.30;98654.72;5165949;28;20231;-59
2021/03/23 02:45:55;;;;;;;10.87;9.20;;;4.10;99.90;;;5.21;78.67;98650.72;5165774;28;20289;-58
2021/03/23 02:48:28;;;;;;;9.37;8.03;;;4.10;99.90;;;5.16;78.75;98649.41;5165239;28;20240;-59
2021/03/23 02:51:00;;;;;;;10.47;9.00;;;4.10;99.90;;;5.15;78.91;98651.03;5215871;22;20222;-55
2021/03/23 02:53:33;;;;;;;8.20;7.50;;;4.10;99.90;;;5.12;78.72;98652.38;5218616;28;20739;-56
2021/03/23 02:56:06;;;;;;;9.40;8.40;;;4.10;99.90;;;5.15;78.66;98647.59;5227154;28;20621;-57
2021/03/23 02:58:38;;;;;;;10.13;8.53;;;4.10;99.90;;;5.11;78.90;98655.69;5207820;28;20587;-56
2021/03/23 03:01:11;;;;;;;11.87;9.47;;;4.20;99.90;;;5.11;78.67;98653.16;5205931;28;20259;-55
2021/03/23 03:03:44;;;;;;;10.07;9.07;;;4.10;99.90;;;5.09;78.88;98647.03;5205897;28;20190;-55
2021/03/23 03:06:16;;;;;;;10.17;9.17;;;4.10;99.90;;;5.12;79.16;98652.38;5205531;28;20205;-53
2021/03/23 03:08:49;;;;;;;10.40;9.50;;;4.10;99.90;;;5.11;78.85;98648.06;5206133;28;20211;-56
2021/03/23 03:11:21;;;;;;;11.77;9.57;;;4.10;99.90;;;5.07;79.06;98646.91;5205897;28;20320;-56
2021/03/23 03:13:54;;;;;;;10.40;9.30;;;4.10;99.90;;;5.09;79.06;98647.03;5205907;28;20612;-54
2021/03/23 03:16:26;;;;;;;11.37;9.93;;;4.10;99.90;;;5.11;79.25;98645.53;5205533;28;20200;-56
2021/03/23 03:18:58;;;;;;;10.37;8.93;;;4.10;99.90;;;5.07;78.76;98649.44;5206065;28;20224;-55
2021/03/23 03:21:30;;;;;;;10.83;9.30;;;4.10;99.90;;;5.11;78.79;98646.44;5205863;28;20310;-54
2021/03/23 03:24:05;;;;;;;10.40;9.40;;;4.10;99.90;;;5.09;79.30;98649.56;5205924;28;20293;-54
2021/03/23 03:26:37;;;;;;;11.73;9.03;;;4.20;99.90;;;5.08;79.29;98645.28;5204519;28;20207;-56
2021/03/23 03:29:09;;;;;;;11.50;9.30;;;4.20;99.90;;;5.05;79.25;98645.00;5205607;28;20215;-54
2021/03/23 03:31:41;;;;;;;10.80;9.07;;;4.10;99.90;;;5.03;79.06;98649.03;5205358;28;20198;-57
2021/03/23 03:34:14;;;;;;;11.27;9.10;;;4.10;99.90;;;4.99;78.92;98644.44;5205817;28;20262;-54
2021/03/23 03:36:46;;;;;;;11.47;9.47;;;4.10;99.90;;;5.01;78.98;98643.84;5205246;28;20676;-55
2021/03/23 03:39:19;;;;;;;11.10;9.67;;;4.00;99.90;;;5.03;79.11;98644.84;5205661;28;20724;-54
2021/03/23 03:41:51;;;;;;;11.20;9.13;;;4.10;99.90;;;5.04;79.26;98644.09;5205572;28;20201;-54
2021/03/23 03:44:23;;;;;;;11.20;10.10;;;4.10;99.90;;;5.06;79.33;98641.69;5205489;28;20204;-55
2021/03/23 03:46:55;;;;;;;12.87;9.60;;;4.10;99.90;;;5.06;78.98;98644.22;5205231;28;20299;-55
2021/03/23 03:49:27;;;;;;;10.47;9.40;;;4.10;99.90;;;5.04;79.12;98646.66;5205488;28;20231;-56
2021/03/23 03:51:59;;;;;;;10.93;9.80;;;4.10;99.90;;;5.01;79.14;98648.91;5204606;28;20203;-56
2021/03/23 03:54:32;;;;;;;11.23;9.90;;;4.00;99.90;;;5.03;79.32;98649.03;5205669;28;20327;-53
2021/03/23 03:57:05;;;;;;;12.60;10.40;;;4.00;99.90;;;4.99;79.29;98647.84;5205361;28;20224;-55
2021/03/23 03:59:37;;;;;;;12.57;10.93;;;4.10;99.90;;;4.87;79.39;98654.34;5205178;28;20216;-53
2021/03/23 04:02:10;;;;;;;13.60;10.53;;;3.90;99.90;;;4.89;79.03;98661.34;5205276;28;20197;-52
2021/03/23 04:04:44;;;;;;;15.27;10.67;;;3.90;99.90;;;4.89;79.14;98648.69;5205419;28;20209;-55
2021/03/23 04:07:16;;;;;;;12.63;10.60;;;3.90;99.90;;;5.01;78.99;98647.97;5205335;28;20202;-53
2021/03/23 04:09:49;;;;;;;12.33;10.57;;;3.90;99.90;;;5.00;79.20;98654.69;5205227;28;20591;-52
2021/03/23 04:12:24;;;;;;;13.67;10.57;;;4.00;99.90;;;5.00;78.89;98653.81;5205289;28;20227;-53
2021/03/23 04:14:56;;;;;;;12.33;10.90;;;4.00;99.90;;;4.95;79.13;98646.69;5204665;28;20200;-53
2021/03/23 04:17:28;;;;;;;14.30;10.77;;;4.00;99.90;;;4.85;78.88;98649.13;5205019;28;20652;-53
2021/03/23 04:20:01;;;;;;;16.23;11.10;;;3.90;99.90;;;4.85;79.13;98659.25;5205513;28;20228;-53
2021/03/23 04:22:33;;;;;;;12.03;10.40;;;3.90;99.90;;;4.88;79.43;98662.06;5205111;28;20204;-52
2021/03/23 04:25:08;;;;;;;15.80;11.50;;;4.00;99.90;;;4.92;79.26;98664.16;5205049;28;20232;-54
2021/03/23 04:27:40;;;;;;;14.37;12.00;;;4.00;99.90;;;5.01;79.03;98668.25;5204790;28;20230;-53
2021/03/23 04:30:14;;;;;;;14.50;11.60;;;4.00;99.90;;;5.04;78.84;98673.63;5192207;28;20326;-54
2021/03/23 04:32:47;;;;;;;14.67;10.77;;;4.00;99.90;;;5.03;79.15;98672.69;5205116;28;20201;-52
2021/03/23 04:35:27;;;;;;;13.47;10.50;;;4.00;99.90;;;5.03;78.81;98677.78;5205169;28;20206;-55
2021/03/23 04:38:00;;;;;;;13.20;10.03;;;4.00;99.90;;;5.10;78.97;98679.25;5205466;28;20601;-53
2021/03/23 04:40:33;;;;;;;12.90;9.57;;;4.00;99.90;;;5.17;78.88;98677.38;5209277;28;20221;-54
2021/03/23 04:43:07;;;;;;;14.50;10.70;;;4.00;99.90;;;5.10;78.81;98685.19;5209198;28;20650;-54
2021/03/23 04:45:39;;;;;;;11.27;9.90;;;4.00;99.90;;;5.16;79.08;98684.88;5209150;28;20200;-54
2021/03/23 04:48:11;;;;;;;11.70;9.60;;;4.00;99.90;;;5.11;79.09;98684.44;5208457;28;20209;-53
2021/03/23 04:50:44;;;;;;;10.70;9.47;;;4.00;99.90;;;5.04;79.17;98689.72;5208528;28;20240;-52
2021/03/23 04:53:22;;;;;;;13.90;10.10;;;4.00;99.90;;;5.04;79.55;98688.81;5209344;28;20205;-53
2021/03/23 04:55:56;;;;;;;13.60;10.60;;;4.00;99.90;;;5.00;79.78;98686.75;5209154;28;20208;-56
2021/03/23 04:58:29;;;;;;;14.63;10.90;;;3.90;99.90;;;4.96;79.74;98696.59;5208347;28;20224;-52
2021/03/23 05:01:01;;;;;;;13.30;10.80;;;4.00;99.90;;;4.92;79.47;98694.53;5207447;28;20254;-56
2021/03/23 05:03:34;;;;;;;14.27;10.33;;;4.00;99.90;;;4.91;79.75;98696.91;5208757;28;20202;-52
2021/03/23 05:06:09;;;;;;;13.47;9.87;;;4.00;99.90;;;4.94;79.93;98698.09;5208272;28;20202;-52
2021/03/23 05:08:43;;;;;;;15.20;10.87;;;4.00;99.90;;;4.89;79.52;98695.88;5208478;28;20214;-52
2021/03/23 05:11:20;;;;;;;14.27;11.17;;;4.00;99.90;;;4.89;79.75;98688.28;5207884;28;20314;-54
2021/03/23 05:13:52;;;;;;;13.60;10.93;;;4.00;99.90;;;4.90;79.58;98701.09;5208367;28;20223;-57
2021/03/23 05:16:24;;;;;;;13.37;10.57;;;4.00;99.90;;;4.91;79.72;98692.75;5208574;28;20210;-56
2021/03/23 05:18:57;;;;;;;13.20;11.03;;;4.00;99.90;;;4.94;79.43;98704.81;5207635;28;20221;-55
2021/03/23 05:21:30;;;;;;;12.70;10.97;;;4.00;99.90;;;4.92;79.62;98699.63;5207850;28;20225;-56
2021/03/23 05:24:03;;;;;;;13.60;10.30;;;4.00;99.90;;;4.91;79.71;98697.81;5208050;28;20200;-53
2021/03/23 05:26:35;;;;;;;13.60;10.60;;;4.00;99.90;;;4.95;79.80;98699.88;5206707;28;20225;-54
2021/03/23 05:29:07;;;;;;;14.87;10.63;;;4.00;99.90;;;4.92;79.87;98709.75;5207861;28;20197;-56
2021/03/23 05:31:39;;;;;;;12.97;10.67;;;4.00;99.90;;;4.89;79.85;98709.47;5207258;28;20200;-55
2021/03/23 05:34:13;;;;;;;13.23;11.10;;;3.90;99.90;;;4.89;80.23;98704.41;5207526;28;20283;-52
2021/03/23 05:36:45;;;;;;;12.40;10.70;;;4.00;99.90;;;4.93;80.00;98706.44;5206620;28;20209;-53
2021/03/23 05:39:17;;;;;;;12.10;10.67;;;4.00;99.90;;;4.98;80.29;98704.34;5207514;28;20597;-56
2021/03/23 05:41:59;;;;;;;13.23;10.80;;;4.00;99.90;;;5.03;79.97;98702.22;5207215;28;20207;-54
2021/03/23 05:45:13;;;;;;;14.03;11.43;;;4.10;99.90;;;5.08;79.96;98711.13;5206716;28;20196;-56
2021/03/23 05:48:03;;;;;;;12.73;10.67;;;4.10;99.90;;;5.04;79.94;98704.91;5199485;28;20201;-53
2021/03/23 05:50:37;;;;;;;11.93;10.13;;;4.10;99.90;;;5.06;79.90;98705.03;5203785;28;20229;-57
2021/03/23 05:53:17;;;;;;;11.07;9.87;;;4.10;99.90;;;5.09;80.38;98703.66;5207755;28;20255;-53
2021/03/23 05:55:51;;;;;;;12.33;10.67;;;4.10;99.90;;;5.13;80.04;98712.47;5205946;28;20219;-56
2021/03/23 05:58:27;;;;;;;14.97;11.87;;;4.10;99.90;;;5.13;79.98;98709.94;5201910;28;20303;-55
2021/03/23 06:01:02;;;;;;;13.63;11.27;;;4.10;99.90;;;5.14;79.97;98714.22;5206631;28;20223;-54
2021/03/23 06:03:41;;;;;;;15.57;11.30;;;4.10;99.90;;;5.15;79.88;98718.53;5203119;28;20196;-55
2021/03/23 06:06:26;;;;;;;13.63;11.27;;;4.10;99.90;;;5.16;79.92;98720.34;5206818;28;20186;-53
2021/03/23 06:08:58;;;;;;;17.70;12.20;;;4.20;99.90;;;5.12;79.77;98718.25;5206721;28;20200;-57
2021/03/23 06:11:50;;;;;;;14.73;11.37;;;4.20;99.90;;;5.20;80.07;98722.41;5206910;28;20774;-54
2021/03/23 06:14:34;;;;;;;16.27;12.03;;;4.20;99.90;;;5.27;79.69;98728.94;5205042;28;20243;-54
2021/03/23 06:17:26;;;;;;;15.73;12.37;;;4.20;99.90;;;5.31;79.40;98726.81;5210237;28;20193;-55
2021/03/23 06:20:17;;;;;;;13.80;10.70;;;4.20;99.90;;;5.33;79.19;98730.38;5209008;28;20234;-53
2021/03/23 06:23:07;;;;;;;11.90;9.77;;;4.20;99.90;;;5.25;79.67;98738.91;5206549;28;20203;-57
2021/03/23 06:25:45;;;;;;;14.13;10.50;;;4.20;99.90;;;5.25;80.04;98751.59;5207119;28;20209;-55
2021/03/23 06:28:37;;;;;;;11.87;10.20;;;4.30;99.90;;;5.30;79.70;98742.78;5205450;28;20200;-56
2021/03/23 06:31:41;;;;;;;13.73;11.50;;;4.20;99.90;;;5.32;79.83;98756.47;5203155;28;20236;-53
2021/03/23 06:34:17;;;;;;;12.07;10.70;;;4.30;99.90;;;5.30;79.72;98757.97;5206536;28;20224;-57
2021/03/23 06:36:51;;;;;;;13.27;11.87;;;4.30;99.90;;;5.27;79.20;98752.63;5205191;28;20208;-56
2021/03/23 06:39:24;;;;;;;15.83;12.00;;;4.30;99.90;;;5.27;78.92;98757.69;5206686;28;20580;-55
2021/03/23 06:42:00;;;;;;;13.77;11.27;;;4.30;99.90;;;5.29;79.31;98758.72;5206920;28;20194;-57
2021/03/23 06:44:35;;;;;;;15.07;11.30;;;4.30;99.90;;;5.34;79.35;98761.69;5205767;28;20200;-57
2021/03/23 06:47:37;;;;;;;14.60;11.50;;;4.30;99.90;;;5.40;79.16;98768.19;5205695;28;20200;-55
2021/03/23 06:50:39;;;;;;;17.60;12.37;;;4.40;99.90;;;5.42;78.85;98769.22;5205434;28;20233;-56
2021/03/23 06:53:15;;;;;;;14.73;12.27;;;4.40;99.90;;;5.50;78.62;98769.06;5123086;29;20188;-56
2021/03/23 06:55:49;;;;;;;15.20;12.50;;;4.50;99.90;;;5.55;78.34;98772.88;5192549;28;20546;-54
2021/03/23 06:58:31;;;;;;;14.37;11.93;;;4.50;99.90;;;5.62;78.36;98765.09;5212163;28;20310;-56
2021/03/23 07:01:25;;;;;;;14.87;12.80;;;4.60;99.90;;;5.67;78.26;98765.53;5197619;28;20214;-58
2021/03/23 07:04:22;;;;;;;17.63;13.27;;;4.70;99.90;;;5.75;78.43;98768.00;5196176;28;20241;-57
2021/03/23 07:07:15;;;;;;;16.67;13.20;;;4.80;99.90;;;5.76;77.67;98772.31;5203886;28;20611;-54
2021/03/23 07:09:51;;;;;;;18.07;13.50;;;4.70;99.90;;;5.80;77.77;98779.41;5204035;28;20216;-55
2021/03/23 07:12:39;;;;;;;18.27;14.17;;;4.70;99.90;;;5.82;77.88;98779.56;5204447;28;20550;-56
2021/03/23 07:15:14;;;;;;;16.93;13.87;;;4.70;99.90;;;5.81;77.81;98781.22;5204588;28;20288;-58
2021/03/23 07:17:50;;;;;;;19.43;14.77;;;4.70;99.90;;;5.92;77.56;98776.19;5203858;28;20638;-53
2021/03/23 07:20:43;;;;;;;18.80;15.27;;;4.80;99.90;;;5.92;77.41;98778.75;5210980;28;20214;-55
2021/03/23 07:23:33;;;;;;;20.97;15.60;;;4.90;99.90;;;6.00;76.70;98778.69;5191953;28;20660;-55
2021/03/23 07:26:21;;;;;;;20.30;15.07;;;4.90;99.90;;;6.05;76.75;98786.75;5204331;28;20633;-57
2021/03/23 07:28:53;;;;;;;18.50;14.80;;;5.00;99.90;;;6.08;76.92;98785.34;5204246;28;20186;-56
2021/03/23 07:31:31;;;;;;;23.13;16.23;;;5.00;99.90;;;6.05;76.14;98779.13;5207694;28;20226;-57
2021/03/23 07:34:13;;;;;;;21.53;16.07;;;5.00;99.90;;;6.06;76.22;98780.91;5202110;28;20273;-57
2021/03/23 07:36:55;;;;;;;22.93;16.47;;;5.10;99.90;;;6.06;75.89;98784.31;5212485;28;20285;-54
2021/03/23 07:39:36;;;;;;;23.63;16.70;;;5.10;99.90;;;6.18;75.48;98782.00;5203690;28;20652;-57
2021/03/23 07:42:20;;;;;;;17.93;15.43;;;5.10;99.90;;;6.26;76.12;98785.22;5204948;28;20277;-57
2021/03/23 07:44:57;;;;;;;24.30;17.13;;;5.20;99.90;;;6.35;75.38;98787.66;5202919;28;20281;-53
2021/03/23 07:47:39;;;;;;;23.83;17.07;;;5.30;99.90;;;6.43;75.15;98789.25;5201751;28;20223;-57
2021/03/23 07:50:18;;;;;;;21.73;16.63;;;5.30;99.90;;;6.51;74.97;98783.19;5205294;28;20233;-58
2021/03/23 07:52:56;;;;;;;26.70;19.23;;;5.30;99.90;;;6.65;74.54;98786.94;5203481;28;20225;-57
2021/03/23 07:55:29;;;;;;;25.27;18.10;;;5.40;99.90;;;6.76;73.33;98791.31;5204392;28;20365;-57
2021/03/23 07:58:24;;;;;;;27.70;20.07;;;5.40;99.90;;;6.85;73.11;98794.63;5203626;28;20249;-57
2021/03/23 08:01:32;;;;;;;26.93;19.30;;;5.50;99.90;;;6.94;72.64;98792.00;5205388;28;20234;-56
2021/03/23 08:04:10;;;;;;;27.77;20.23;;;5.60;99.90;;;6.99;72.23;98794.16;5204127;28;20196;-56
2021/03/23 08:06:57;;;;;;;25.67;18.33;;;5.60;99.90;;;7.02;72.41;98796.09;5204179;28;20185;-57
2021/03/23 08:10:08;;;;;;;26.03;19.97;;;5.60;99.90;;;7.07;72.04;98802.47;5203965;28;20251;-54
2021/03/23 08:13:08;;;;;;;27.93;20.00;;;5.70;99.90;;;7.26;71.33;98796.41;5203493;28;20618;-57
2021/03/23 08:16:15;;;;;;;27.90;20.30;;;5.70;99.90;;;7.26;71.47;98798.94;5199144;28;20208;-56
2021/03/23 08:19:24;;;;;;;29.10;19.43;;;5.80;99.90;;;7.27;71.68;98800.69;5198464;28;20220;-56
2021/03/23 08:22:45;;;;;;;27.83;19.53;;;6.00;99.90;;;7.36;70.94;98798.97;5205185;28;20200;-53
2021/03/23 08:25:30;;;;;;;30.33;21.00;;;6.00;99.90;;;7.36;70.65;98797.31;5196620;28;20194;-56
2021/03/23 08:28:19;;;;;;;26.70;19.93;;;6.20;99.90;;;7.43;70.53;98797.03;5203581;28;20273;-56
2021/03/23 08:31:14;;;;;;;27.90;20.47;;;6.10;99.90;;;7.63;70.11;98800.38;5203864;28;20218;-57
2021/03/23 08:34:02;;;;;;;34.20;22.20;;;6.10;99.90;;;7.54;70.21;98799.63;5203817;28;20229;-57
2021/03/23 08:37:05;;;;;;;28.23;19.97;;;6.10;99.90;;;7.75;69.58;98803.94;5204109;28;20222;-54
2021/03/23 08:39:48;;;;;;;28.97;20.73;;;6.20;99.90;;;7.78;69.79;98795.66;5200153;28;20227;-57
2021/03/23 08:42:24;;;;;;;26.63;19.73;;;6.30;99.90;;;7.84;69.63;98792.00;5201475;28;20197;-54
2021/03/23 08:45:00;;;;;;;29.17;19.93;;;6.50;99.90;;;8.05;68.23;98792.84;5203361;28;20288;-57
2021/03/23 08:47:38;;;;;;;28.53;21.20;;;6.40;99.90;;;7.96;68.32;98801.41;5203674;28;20193;-55
2021/03/23 08:50:23;;;;;;;27.87;19.83;;;6.40;99.90;;;8.02;68.33;98805.34;5205127;28;20225;-57
2021/03/23 08:52:58;;;;;;;30.13;21.33;;;6.40;99.90;;;8.08;68.65;98803.28;5201446;28;20708;-56
2021/03/23 08:55:46;;;;;;;29.10;20.43;;;6.50;99.90;;;8.08;67.83;98802.41;5203606;28;20240;-55
2021/03/23 08:58:47;;;;;;;28.17;19.67;;;6.60;99.90;;;8.22;67.86;98806.97;5202772;28;20225;-58
2021/03/23 09:01:39;;;;;;;27.80;20.27;;;6.60;99.90;;;8.27;67.67;98814.97;5198835;28;20213;-57
2021/03/23 09:04:32;;;;;;;30.40;21.03;;;6.70;99.90;;;8.22;67.22;98811.19;5200664;28;20213;-56
2021/03/23 09:07:21;;;;;;;26.17;20.07;;;6.70;99.90;;;8.24;67.26;98814.72;5201699;28;20289;-56
2021/03/23 09:09:54;;;;;;;25.00;19.83;;;6.70;99.90;;;8.19;67.55;98808.38;5202409;28;20304;-58
2021/03/23 09:12:40;;;;;;;27.50;20.60;;;6.70;99.90;;;8.13;67.72;98812.19;5202391;28;20197;-58
2021/03/23 09:15:22;;;;;;;31.03;21.07;;;6.60;99.90;;;8.07;68.20;98811.72;5202448;28;20200;-58
2021/03/23 09:18:00;;;;;;;28.73;20.50;;;6.60;99.90;;;8.08;67.95;98820.22;5203082;28;20721;-57
2021/03/23 09:20:56;;;;;;;28.93;20.40;;;6.60;99.90;;;8.06;68.06;98812.44;5198179;28;20904;-57
2021/03/23 09:23:46;;;;;;;27.53;20.97;;;6.60;99.90;;;8.08;67.50;98810.94;5202183;28;20518;-56
2021/03/23 09:26:48;;;;;;;29.10;22.00;;;6.60;99.90;;;7.87;68.12;98811.72;5212927;28;20190;-56
2021/03/23 09:29:46;;;;;;;28.17;21.77;;;6.50;99.90;;;7.92;68.61;98815.50;5198590;28;20644;-55
2021/03/23 09:32:23;;;;;;;28.10;20.40;;;6.60;99.90;;;8.05;68.24;98808.13;5207436;28;20212;-57
2021/03/23 09:35:17;;;;;;;29.87;21.73;;;6.60;99.90;;;8.05;68.36;98808.13;5206815;28;20196;-58
2021/03/23 09:37:53;;;;;;;27.47;20.40;;;6.60;99.90;;;8.14;67.96;98808.00;5206008;28;20286;-56
2021/03/23 09:40:53;;;;;;;26.80;20.13;;;6.70;99.90;;;8.23;67.33;98802.75;5206283;28;20588;-57
2021/03/23 09:43:36;;;;;;;26.90;19.77;;;6.70;99.90;;;8.25;67.48;98806.34;5200276;28;20357;-58
2021/03/23 09:46:31;;;;;;;28.03;20.17;;;6.90;99.90;;;8.31;67.43;98801.72;5205813;28;20280;-55
2021/03/23 09:49:18;;;;;;;26.97;18.90;;;7.00;99.90;;;8.40;66.60;98792.31;5197926;28;20201;-55
2021/03/23 09:51:55;;;;;;;26.30;19.90;;;7.00;99.90;;;8.43;66.64;98791.66;5206783;28;20200;-57
2021/03/23 09:54:31;;;;;;;24.47;18.83;;;7.00;99.90;;;8.60;65.87;98795.56;5203330;28;20198;-55
2021/03/23 09:57:12;;;;;;;26.67;19.67;;;7.00;99.90;;;8.57;65.84;98794.53;5205601;28;20204;-57
2021/03/23 10:00:21;;;;;;;22.77;17.67;;;7.20;99.90;;;8.67;65.63;98792.72;5205287;28;20641;-58
2021/03/23 10:02:53;;;;;;;24.83;18.63;;;7.30;99.90;;;8.76;65.44;98798.56;5210174;28;20270;-57
2021/03/23 10:05:31;;;;;;;25.43;18.23;;;7.30;99.90;;;8.67;65.28;98796.19;5205150;28;20681;-57
2021/03/23 10:08:18;;;;;;;25.83;18.20;;;7.40;99.90;;;8.82;63.98;98793.94;5204103;28;20509;-57
2021/03/23 10:10:50;;;;;;;22.83;17.33;;;7.50;99.90;;;8.77;63.77;98795.25;5197989;28;20284;-57
2021/03/23 10:13:27;;;;;;;23.03;17.97;;;7.40;99.90;;;8.73;64.75;98788.13;5205925;28;20204;-54
2021/03/23 10:16:05;;;;;;;19.63;15.80;;;7.40;99.90;;;8.75;63.71;98791.69;5204415;28;20208;-57
2021/03/23 10:18:40;;;;;;;22.03;16.43;;;7.40;99.90;;;8.89;62.87;98783.44;5204196;28;20218;-55
2021/03/23 10:21:15;;;;;;;20.73;16.20;;;7.30;99.90;;;8.94;63.00;98783.81;5205548;28;20214;-58
2021/03/23 10:23:51;;;;;;;21.17;16.63;;;7.40;99.90;;;8.75;63.33;98789.13;5203447;28;20718;-55
2021/03/23 10:26:26;;;;;;;21.93;15.50;;;7.40;99.90;;;8.80;62.98;98780.19;5205152;28;20560;-56
2021/03/23 10:29:11;;;;;;;18.27;14.90;;;7.30;99.90;;;8.89;61.82;98787.66;5204791;28;20690;-55
2021/03/23 10:31:50;;;;;;;18.17;15.03;;;7.40;99.90;;;8.84;61.52;98783.88;5196954;28;20653;-54
2021/03/23 10:34:25;;;;;;;17.57;14.73;;;7.60;99.90;;;8.74;62.78;98787.34;5205162;28;20574;-55
2021/03/23 10:37:01;;;;;;;19.43;14.40;;;7.70;99.90;;;8.80;62.98;98781.06;5204001;28;20233;-55
2021/03/23 10:39:48;;;;;;;18.37;13.73;;;7.70;99.90;;;9.01;62.14;98780.97;5205297;28;20324;-57
2021/03/23 10:42:35;;;;;;;18.43;13.70;;;7.60;99.90;;;9.07;60.67;98775.47;5206226;28;20296;-58
2021/03/23 10:45:28;;;;;;;16.03;11.57;;;7.70;99.90;;;9.26;59.38;98783.75;5205823;28;20689;-58
2021/03/23 10:48:07;;;;;;;15.37;11.67;;;7.80;99.90;;;9.35;58.88;98779.34;5204739;28;20194;-57
2021/03/23 10:50:43;;;;;;;12.33;10.57;;;7.80;99.90;;;9.32;58.17;98784.22;5205765;28;20229;-56
2021/03/23 10:53:21;;;;;;;14.33;11.97;;;7.80;99.90;;;9.34;58.81;98785.25;5199440;28;20197;-57
2021/03/23 10:55:54;;;;;;;16.43;11.70;;;7.90;99.90;;;9.47;58.28;98780.31;5205514;28;20208;-57
2021/03/23 10:58:27;;;;;;;12.43;10.40;;;8.00;99.90;;;9.53;57.03;98781.53;5205839;28;20225;-55
2021/03/23 11:01:15;;;;;;;9.17;7.70;;;7.90;99.90;;;9.58;56.08;98780.22;5202323;28;20225;-56
2021/03/23 11:03:52;;;;;;;9.60;8.63;;;8.00;99.90;;;9.52;55.22;98778.09;5198899;28;20206;-58
2021/03/23 11:06:31;;;;;;;9.90;8.43;;;8.00;99.90;;;9.57;54.50;98781.00;5203981;28;20574;-58
2021/03/23 11:09:08;;;;;;;11.73;8.60;;;8.10;99.90;;;9.58;56.48;98782.78;5202109;28;20251;-57
2021/03/23 11:11:40;;;;;;;10.43;9.43;;;8.10;99.90;;;9.60;54.24;98776.13;5202666;28;20194;-58